sensor_id;sensor_type;location;lat;lon;timestamp;temperature;humidity
18932;DHT22;9598;50.954;3.112;2022-12-07T00:00:08;6.60;99.90
18932;DHT22;9598;50.954;3.112;2022-12-07T00:05:10;6.70;99.90
18932;DHT22;9598;50.954;3.112;2022-12-07T00:10:14;6.70;99.90
18932;DHT22;9598;50.954;3.112;2022-12-07T00:15:16;6.70;99.90
18932;DHT22;9598;50.954;3.112;2022-12-07T00:20:18;6.70;99.90
18932;DHT22;9598;50.954;3.112;2022-12-07T00:25:22;6.70;99.90
18932;DHT22;9598;50.954;3.112;2022-12-07T00:30:24;6.80;99.90
18932;DHT22;9598;50.954;3.112;2022-12-07T00:35:26;6.70;99.90
18932;DHT22;9598;50.954;3.112;2022-12-07T00:40:29;6.70;99.90
18932;DHT22;9598;50.954;3.112;2022-12-07T00:45:31;6.70;99.90
18932;DHT22;9598;50.954;3.112;2022-12-07T00:50:34;6.70;99.90
18932;DHT22;9598;50.954;3.112;2022-12-07T00:55:37;6.60;99.90
18932;DHT22;9598;50.954;3.112;2022-12-07T01:00:41;6.60;99.90
18932;DHT22;9598;50.954;3.112;2022-12-07T01:05:50;6.60;99.90
18932;DHT22;9598;50.954;3.112;2022-12-07T01:10:59;6.60;99.90
18932;DHT22;9598;50.954;3.112;2022-12-07T01:16:04;6.50;99.90
18932;DHT22;9598;50.954;3.112;2022-12-07T01:21:09;6.50;99.90
18932;DHT22;9598;50.954;3.112;2022-12-07T01:26:15;6.50;99.90
18932;DHT22;9598;50.954;3.112;2022-12-07T01:31:19;6.50;99.90
18932;DHT22;9598;50.954;3.112;2022-12-07T01:36:23;6.50;99.90
18932;DHT22;9598;50.954;3.112;2022-12-07T01:41:28;6.50;99.90
18932;DHT22;9598;50.954;3.112;2022-12-07T01:46:30;6.50;99.90
18932;DHT22;9598;50.954;3.112;2022-12-07T01:51:33;6.50;99.90
18932;DHT22;9598;50.954;3.112;2022-12-07T01:56:37;6.40;99.90
18932;DHT22;9598;50.954;3.112;2022-12-07T02:01:40;6.50;99.90
18932;DHT22;9598;50.954;3.112;2022-12-07T02:06:43;6.50;99.90
18932;DHT22;9598;50.954;3.112;2022-12-07T02:11:48;6.50;99.90
18932;DHT22;9598;50.954;3.112;2022-12-07T02:17:03;6.50;99.90
18932;DHT22;9598;50.954;3.112;2022-12-07T02:22:23;6.60;99.90
18932;DHT22;9598;50.954;3.112;2022-12-07T02:27:42;6.50;99.90
18932;DHT22;9598;50.954;3.112;2022-12-07T02:32:54;6.50;99.90
18932;DHT22;9598;50.954;3.112;2022-12-07T02:38:03;6.50;99.90
18932;DHT22;9598;50.954;3.112;2022-12-07T02:43:10;6.50;99.90
18932;DHT22;9598;50.954;3.112;2022-12-07T02:48:16;6.60;99.90
18932;DHT22;9598;50.954;3.112;2022-12-07T02:53:32;6.50;99.90
18932;DHT22;9598;50.954;3.112;2022-12-07T02:58:41;6.50;99.90
18932;DHT22;9598;50.954;3.112;2022-12-07T03:03:58;6.40;99.90
18932;DHT22;9598;50.954;3.112;2022-12-07T03:09:05;6.30;99.90
18932;DHT22;9598;50.954;3.112;2022-12-07T03:14:15;6.30;99.90
18932;DHT22;9598;50.954;3.112;2022-12-07T03:19:22;6.20;99.90
18932;DHT22;9598;50.954;3.112;2022-12-07T03:24:27;6.20;99.90
18932;DHT22;9598;50.954;3.112;2022-12-07T03:29:33;6.20;99.90
18932;DHT22;9598;50.954;3.112;2022-12-07T03:34:42;6.20;99.90
18932;DHT22;9598;50.954;3.112;2022-12-07T03:39:52;6.20;99.90
18932;DHT22;9598;50.954;3.112;2022-12-07T03:44:59;6.10;99.90
18932;DHT22;9598;50.954;3.112;2022-12-07T03:50:07;6.00;99.90
18932;DHT22;9598;50.954;3.112;2022-12-07T03:55:16;6.00;99.90
18932;DHT22;9598;50.954;3.112;2022-12-07T04:00:20;5.80;99.90
18932;DHT22;9598;50.954;3.112;2022-12-07T04:05:25;5.60;99.90
18932;DHT22;9598;50.954;3.112;2022-12-07T04:10:27;5.50;99.90
18932;DHT22;9598;50.954;3.112;2022-12-07T04:15:29;5.60;99.90
18932;DHT22;9598;50.954;3.112;2022-12-07T04:20:32;5.60;99.90
18932;DHT22;9598;50.954;3.112;2022-12-07T04:25:34;5.60;99.90
18932;DHT22;9598;50.954;3.112;2022-12-07T04:30:37;5.60;99.90
18932;DHT22;9598;50.954;3.112;2022-12-07T04:35:42;5.70;99.90
18932;DHT22;9598;50.954;3.112;2022-12-07T04:40:44;5.70;99.90
18932;DHT22;9598;50.954;3.112;2022-12-07T04:45:47;5.70;99.90
18932;DHT22;9598;50.954;3.112;2022-12-07T04:50:50;5.70;99.90
18932;DHT22;9598;50.954;3.112;2022-12-07T04:55:52;5.70;99.90
18932;DHT22;9598;50.954;3.112;2022-12-07T05:00:55;5.70;99.90
18932;DHT22;9598;50.954;3.112;2022-12-07T05:05:58;5.70;99.90
18932;DHT22;9598;50.954;3.112;2022-12-07T05:11:01;5.80;99.90
18932;DHT22;9598;50.954;3.112;2022-12-07T05:16:03;5.80;99.90
18932;DHT22;9598;50.954;3.112;2022-12-07T05:21:07;5.70;99.90
18932;DHT22;9598;50.954;3.112;2022-12-07T05:26:09;5.70;99.90
18932;DHT22;9598;50.954;3.112;2022-12-07T05:31:11;5.60;99.90
18932;DHT22;9598;50.954;3.112;2022-12-07T05:36:14;5.60;99.90
18932;DHT22;9598;50.954;3.112;2022-12-07T05:41:18;5.60;99.90
18932;DHT22;9598;50.954;3.112;2022-12-07T05:46:37;5.60;99.90
18932;DHT22;9598;50.954;3.112;2022-12-07T05:51:41;5.50;99.90
18932;DHT22;9598;50.954;3.112;2022-12-07T05:56:43;5.50;99.90
18932;DHT22;9598;50.954;3.112;2022-12-07T06:01:45;5.60;99.90
18932;DHT22;9598;50.954;3.112;2022-12-07T06:06:48;5.50;99.90
18932;DHT22;9598;50.954;3.112;2022-12-07T06:11:51;5.60;99.90
18932;DHT22;9598;50.954;3.112;2022-12-07T06:17:11;5.60;99.90
18932;DHT22;9598;50.954;3.112;2022-12-07T06:22:15;5.70;99.90
18932;DHT22;9598;50.954;3.112;2022-12-07T06:27:17;5.70;99.90
18932;DHT22;9598;50.954;3.112;2022-12-07T06:32:19;5.70;99.90
18932;DHT22;9598;50.954;3.112;2022-12-07T06:37:22;5.70;99.90
18932;DHT22;9598;50.954;3.112;2022-12-07T06:42:24;5.70;99.90
18932;DHT22;9598;50.954;3.112;2022-12-07T06:47:26;5.80;99.90
18932;DHT22;9598;50.954;3.112;2022-12-07T06:52:30;5.80;99.90
18932;DHT22;9598;50.954;3.112;2022-12-07T06:57:32;5.80;99.90
18932;DHT22;9598;50.954;3.112;2022-12-07T07:02:34;5.90;99.90
18932;DHT22;9598;50.954;3.112;2022-12-07T07:07:37;5.90;99.90
18932;DHT22;9598;50.954;3.112;2022-12-07T07:12:39;5.90;99.90
18932;DHT22;9598;50.954;3.112;2022-12-07T07:17:41;6.00;99.90
18932;DHT22;9598;50.954;3.112;2022-12-07T07:22:45;6.00;99.90
18932;DHT22;9598;50.954;3.112;2022-12-07T07:27:47;6.00;99.90
18932;DHT22;9598;50.954;3.112;2022-12-07T07:32:49;6.00;99.90
18932;DHT22;9598;50.954;3.112;2022-12-07T07:37:52;6.10;99.90
18932;DHT22;9598;50.954;3.112;2022-12-07T07:42:55;6.00;99.90
18932;DHT22;9598;50.954;3.112;2022-12-07T07:47:57;6.00;99.90
18932;DHT22;9598;50.954;3.112;2022-12-07T07:53:01;6.10;99.90
18932;DHT22;9598;50.954;3.112;2022-12-07T07:58:03;6.10;99.90
18932;DHT22;9598;50.954;3.112;2022-12-07T08:03:05;6.10;99.90
18932;DHT22;9598;50.954;3.112;2022-12-07T08:08:09;6.20;99.90
18932;DHT22;9598;50.954;3.112;2022-12-07T08:13:11;6.20;99.90
18932;DHT22;9598;50.954;3.112;2022-12-07T08:18:14;6.20;99.90
18932;DHT22;9598;50.954;3.112;2022-12-07T08:23:18;6.30;99.90
18932;DHT22;9598;50.954;3.112;2022-12-07T08:28:20;6.30;99.90
18932;DHT22;9598;50.954;3.112;2022-12-07T08:33:22;6.40;99.90
18932;DHT22;9598;50.954;3.112;2022-12-07T08:38:27;6.40;99.90
18932;DHT22;9598;50.954;3.112;2022-12-07T08:43:29;6.50;99.90
18932;DHT22;9598;50.954;3.112;2022-12-07T08:48:32;6.50;99.90
18932;DHT22;9598;50.954;3.112;2022-12-07T08:53:37;6.50;99.90
18932;DHT22;9598;50.954;3.112;2022-12-07T08:58:40;6.50;99.90
18932;DHT22;9598;50.954;3.112;2022-12-07T09:03:43;6.50;99.90
18932;DHT22;9598;50.954;3.112;2022-12-07T09:08:51;6.60;99.90
18932;DHT22;9598;50.954;3.112;2022-12-07T09:13:54;6.70;99.90
18932;DHT22;9598;50.954;3.112;2022-12-07T09:18:57;6.70;99.90
18932;DHT22;9598;50.954;3.112;2022-12-07T09:24:00;6.70;99.90
18932;DHT22;9598;50.954;3.112;2022-12-07T09:29:02;6.70;99.90
18932;DHT22;9598;50.954;3.112;2022-12-07T09:34:04;6.70;99.90
18932;DHT22;9598;50.954;3.112;2022-12-07T09:39:09;6.70;99.90
18932;DHT22;9598;50.954;3.112;2022-12-07T09:44:13;6.70;99.90
18932;DHT22;9598;50.954;3.112;2022-12-07T09:49:18;6.80;99.90
18932;DHT22;9598;50.954;3.112;2022-12-07T09:54:22;6.90;99.90
18932;DHT22;9598;50.954;3.112;2022-12-07T09:59:25;6.90;99.90
18932;DHT22;9598;50.954;3.112;2022-12-07T10:04:27;7.00;99.90
18932;DHT22;9598;50.954;3.112;2022-12-07T10:09:31;7.00;99.90
18932;DHT22;9598;50.954;3.112;2022-12-07T10:14:38;7.10;99.90
18932;DHT22;9598;50.954;3.112;2022-12-07T10:19:40;7.10;99.90
18932;DHT22;9598;50.954;3.112;2022-12-07T10:24:47;7.20;99.90
18932;DHT22;9598;50.954;3.112;2022-12-07T10:29:50;7.20;99.90
18932;DHT22;9598;50.954;3.112;2022-12-07T10:35:22;7.30;99.90
18932;DHT22;9598;50.954;3.112;2022-12-07T10:40:29;7.40;99.90
18932;DHT22;9598;50.954;3.112;2022-12-07T10:45:32;7.40;99.90
18932;DHT22;9598;50.954;3.112;2022-12-07T10:50:49;7.50;99.90
18932;DHT22;9598;50.954;3.112;2022-12-07T11:01:23;7.70;99.90
18932;DHT22;9598;50.954;3.112;2022-12-07T11:06:32;7.70;99.90
18932;DHT22;9598;50.954;3.112;2022-12-07T11:11:41;7.70;99.90
18932;DHT22;9598;50.954;3.112;2022-12-07T11:16:55;7.60;99.90
18932;DHT22;9598;50.954;3.112;2022-12-07T11:22:04;7.60;99.90
18932;DHT22;9598;50.954;3.112;2022-12-07T11:27:16;7.70;99.90
18932;DHT22;9598;50.954;3.112;2022-12-07T11:32:25;7.80;99.90
18932;DHT22;9598;50.954;3.112;2022-12-07T11:37:35;7.80;99.90
18932;DHT22;9598;50.954;3.112;2022-12-07T11:42:44;7.90;99.90
18932;DHT22;9598;50.954;3.112;2022-12-07T11:47:51;7.90;99.90
18932;DHT22;9598;50.954;3.112;2022-12-07T11:52:59;7.90;99.90
18932;DHT22;9598;50.954;3.112;2022-12-07T11:58:18;8.00;99.90
18932;DHT22;9598;50.954;3.112;2022-12-07T12:03:28;8.00;99.90
18932;DHT22;9598;50.954;3.112;2022-12-07T12:08:36;8.00;99.90
18932;DHT22;9598;50.954;3.112;2022-12-07T12:14:00;8.10;99.90
18932;DHT22;9598;50.954;3.112;2022-12-07T12:19:19;8.20;99.90
18932;DHT22;9598;50.954;3.112;2022-12-07T12:24:25;8.20;99.90
18932;DHT22;9598;50.954;3.112;2022-12-07T12:29:32;8.20;99.90
18932;DHT22;9598;50.954;3.112;2022-12-07T12:34:40;8.20;99.90
18932;DHT22;9598;50.954;3.112;2022-12-07T12:45:27;8.20;99.90
18932;DHT22;9598;50.954;3.112;2022-12-07T12:50:31;8.30;99.90
18932;DHT22;9598;50.954;3.112;2022-12-07T12:56:02;8.30;99.90
18932;DHT22;9598;50.954;3.112;2022-12-07T13:06:47;8.40;99.90
18932;DHT22;9598;50.954;3.112;2022-12-07T13:11:49;8.40;99.90
18932;DHT22;9598;50.954;3.112;2022-12-07T13:16:52;8.40;99.90
18932;DHT22;9598;50.954;3.112;2022-12-07T13:21:56;8.40;99.90
18932;DHT22;9598;50.954;3.112;2022-12-07T13:26:58;8.30;99.90
18932;DHT22;9598;50.954;3.112;2022-12-07T13:32:00;8.30;99.90
18932;DHT22;9598;50.954;3.112;2022-12-07T13:37:10;8.40;99.90
18932;DHT22;9598;50.954;3.112;2022-12-07T13:42:26;8.30;99.90
18932;DHT22;9598;50.954;3.112;2022-12-07T13:47:34;8.20;99.90
18932;DHT22;9598;50.954;3.112;2022-12-07T13:52:43;8.10;99.90
18932;DHT22;9598;50.954;3.112;2022-12-07T13:57:49;8.00;99.90
18932;DHT22;9598;50.954;3.112;2022-12-07T14:02:56;7.90;99.90
18932;DHT22;9598;50.954;3.112;2022-12-07T14:08:03;7.80;99.90
18932;DHT22;9598;50.954;3.112;2022-12-07T14:13:27;7.80;99.90
18932;DHT22;9598;50.954;3.112;2022-12-07T14:18:37;7.80;99.90
18932;DHT22;9598;50.954;3.112;2022-12-07T14:23:41;7.70;99.90
18932;DHT22;9598;50.954;3.112;2022-12-07T14:28:45;7.70;99.90
18932;DHT22;9598;50.954;3.112;2022-12-07T14:33:47;7.80;99.90
18932;DHT22;9598;50.954;3.112;2022-12-07T14:38:50;7.90;99.90
18932;DHT22;9598;50.954;3.112;2022-12-07T14:43:54;7.90;99.90
18932;DHT22;9598;50.954;3.112;2022-12-07T14:48:56;8.00;99.90
18932;DHT22;9598;50.954;3.112;2022-12-07T14:54:00;8.00;99.90
18932;DHT22;9598;50.954;3.112;2022-12-07T14:59:02;7.90;99.90
18932;DHT22;9598;50.954;3.112;2022-12-07T15:04:04;7.70;99.90
18932;DHT22;9598;50.954;3.112;2022-12-07T15:09:09;7.70;99.90
18932;DHT22;9598;50.954;3.112;2022-12-07T15:14:11;7.70;99.90
18932;DHT22;9598;50.954;3.112;2022-12-07T15:19:15;7.70;99.90
18932;DHT22;9598;50.954;3.112;2022-12-07T15:24:20;7.70;99.90
18932;DHT22;9598;50.954;3.112;2022-12-07T15:29:22;7.60;99.90
18932;DHT22;9598;50.954;3.112;2022-12-07T15:34:24;7.50;99.90
18932;DHT22;9598;50.954;3.112;2022-12-07T15:39:29;7.40;99.90
18932;DHT22;9598;50.954;3.112;2022-12-07T15:44:31;7.40;99.90
18932;DHT22;9598;50.954;3.112;2022-12-07T15:49:51;7.40;99.90
18932;DHT22;9598;50.954;3.112;2022-12-07T15:54:54;7.40;99.90
18932;DHT22;9598;50.954;3.112;2022-12-07T15:59:57;7.50;99.90
18932;DHT22;9598;50.954;3.112;2022-12-07T16:04:59;7.50;99.90
18932;DHT22;9598;50.954;3.112;2022-12-07T16:10:03;7.50;99.90
18932;DHT22;9598;50.954;3.112;2022-12-07T16:15:06;7.50;99.90
18932;DHT22;9598;50.954;3.112;2022-12-07T16:20:10;7.40;99.90
18932;DHT22;9598;50.954;3.112;2022-12-07T16:25:13;7.30;99.90
18932;DHT22;9598;50.954;3.112;2022-12-07T16:30:15;7.30;99.90
18932;DHT22;9598;50.954;3.112;2022-12-07T16:35:18;7.30;99.90
18932;DHT22;9598;50.954;3.112;2022-12-07T16:40:22;7.30;99.90
18932;DHT22;9598;50.954;3.112;2022-12-07T16:45:24;7.20;99.90
18932;DHT22;9598;50.954;3.112;2022-12-07T16:50:26;7.10;99.90
18932;DHT22;9598;50.954;3.112;2022-12-07T16:55:29;7.10;99.90
18932;DHT22;9598;50.954;3.112;2022-12-07T17:00:31;7.10;99.90
18932;DHT22;9598;50.954;3.112;2022-12-07T17:05:37;7.10;99.90
18932;DHT22;9598;50.954;3.112;2022-12-07T17:10:43;7.10;99.90
18932;DHT22;9598;50.954;3.112;2022-12-07T17:15:55;7.20;99.90
18932;DHT22;9598;50.954;3.112;2022-12-07T17:21:02;7.10;99.90
18932;DHT22;9598;50.954;3.112;2022-12-07T17:26:08;7.10;99.90
18932;DHT22;9598;50.954;3.112;2022-12-07T17:31:12;7.00;99.90
18932;DHT22;9598;50.954;3.112;2022-12-07T17:36:15;7.00;99.90
18932;DHT22;9598;50.954;3.112;2022-12-07T17:41:21;6.90;99.90
18932;DHT22;9598;50.954;3.112;2022-12-07T17:46:48;6.90;99.90
18932;DHT22;9598;50.954;3.112;2022-12-07T17:51:50;6.90;99.90
18932;DHT22;9598;50.954;3.112;2022-12-07T17:57:11;6.90;99.90
18932;DHT22;9598;50.954;3.112;2022-12-07T18:02:13;6.80;99.90
18932;DHT22;9598;50.954;3.112;2022-12-07T18:07:15;6.80;99.90
18932;DHT22;9598;50.954;3.112;2022-12-07T18:12:18;6.80;99.90
18932;DHT22;9598;50.954;3.112;2022-12-07T18:17:21;6.80;99.90
18932;DHT22;9598;50.954;3.112;2022-12-07T18:22:23;7.00;99.90
18932;DHT22;9598;50.954;3.112;2022-12-07T18:27:26;6.90;99.90
18932;DHT22;9598;50.954;3.112;2022-12-07T18:32:28;7.00;99.90
18932;DHT22;9598;50.954;3.112;2022-12-07T18:37:30;6.90;99.90
18932;DHT22;9598;50.954;3.112;2022-12-07T18:42:34;6.90;99.90
18932;DHT22;9598;50.954;3.112;2022-12-07T18:47:36;6.90;99.90
18932;DHT22;9598;50.954;3.112;2022-12-07T18:52:38;6.90;99.90
18932;DHT22;9598;50.954;3.112;2022-12-07T18:57:42;6.90;99.90
18932;DHT22;9598;50.954;3.112;2022-12-07T19:02:44;7.00;99.90
18932;DHT22;9598;50.954;3.112;2022-12-07T19:07:46;7.00;99.90
18932;DHT22;9598;50.954;3.112;2022-12-07T19:12:50;7.00;99.90
18932;DHT22;9598;50.954;3.112;2022-12-07T19:17:52;7.00;99.90
18932;DHT22;9598;50.954;3.112;2022-12-07T19:22:54;7.00;99.90
18932;DHT22;9598;50.954;3.112;2022-12-07T19:27:57;7.00;99.90
18932;DHT22;9598;50.954;3.112;2022-12-07T19:33:00;7.00;99.90
18932;DHT22;9598;50.954;3.112;2022-12-07T19:38:02;7.00;99.90
18932;DHT22;9598;50.954;3.112;2022-12-07T19:43:05;7.00;99.90
18932;DHT22;9598;50.954;3.112;2022-12-07T19:48:08;7.00;99.90
18932;DHT22;9598;50.954;3.112;2022-12-07T19:53:10;6.90;99.90
18932;DHT22;9598;50.954;3.112;2022-12-07T19:58:13;6.80;99.90
18932;DHT22;9598;50.954;3.112;2022-12-07T20:03:16;6.80;99.90
18932;DHT22;9598;50.954;3.112;2022-12-07T20:08:18;6.70;99.90
18932;DHT22;9598;50.954;3.112;2022-12-07T20:13:22;6.70;99.90
18932;DHT22;9598;50.954;3.112;2022-12-07T20:18:31;6.70;99.90
18932;DHT22;9598;50.954;3.112;2022-12-07T20:23:34;6.60;99.90
18932;DHT22;9598;50.954;3.112;2022-12-07T20:28:38;6.60;99.90
18932;DHT22;9598;50.954;3.112;2022-12-07T20:33:41;6.50;99.90
18932;DHT22;9598;50.954;3.112;2022-12-07T20:38:45;6.50;99.90
18932;DHT22;9598;50.954;3.112;2022-12-07T20:43:49;6.50;99.90
18932;DHT22;9598;50.954;3.112;2022-12-07T20:48:51;6.50;99.90
18932;DHT22;9598;50.954;3.112;2022-12-07T20:53:54;6.50;99.90
18932;DHT22;9598;50.954;3.112;2022-12-07T20:59:00;6.40;99.90
18932;DHT22;9598;50.954;3.112;2022-12-07T21:04:02;6.40;99.90
18932;DHT22;9598;50.954;3.112;2022-12-07T21:09:05;6.40;99.90
18932;DHT22;9598;50.954;3.112;2022-12-07T21:14:08;6.30;99.90
18932;DHT22;9598;50.954;3.112;2022-12-07T21:19:10;6.30;99.90
18932;DHT22;9598;50.954;3.112;2022-12-07T21:24:12;6.40;99.90
18932;DHT22;9598;50.954;3.112;2022-12-07T21:29:16;6.30;99.90
18932;DHT22;9598;50.954;3.112;2022-12-07T21:34:18;6.30;99.90
18932;DHT22;9598;50.954;3.112;2022-12-07T21:39:20;6.30;99.90
18932;DHT22;9598;50.954;3.112;2022-12-07T21:44:23;6.30;99.90
18932;DHT22;9598;50.954;3.112;2022-12-07T21:49:25;6.30;99.90
18932;DHT22;9598;50.954;3.112;2022-12-07T21:54:27;6.20;99.90
18932;DHT22;9598;50.954;3.112;2022-12-07T21:59:31;6.20;99.90
18932;DHT22;9598;50.954;3.112;2022-12-07T22:04:33;6.10;99.90
18932;DHT22;9598;50.954;3.112;2022-12-07T22:09:35;6.10;99.90
18932;DHT22;9598;50.954;3.112;2022-12-07T22:14:38;6.10;99.90
18932;DHT22;9598;50.954;3.112;2022-12-07T22:20:12;6.00;99.90
18932;DHT22;9598;50.954;3.112;2022-12-07T22:25:15;6.00;99.90
18932;DHT22;9598;50.954;3.112;2022-12-07T22:30:19;5.90;99.90
18932;DHT22;9598;50.954;3.112;2022-12-07T22:35:21;5.90;99.90
18932;DHT22;9598;50.954;3.112;2022-12-07T22:40:24;5.90;99.90
18932;DHT22;9598;50.954;3.112;2022-12-07T22:45:27;5.90;99.90
18932;DHT22;9598;50.954;3.112;2022-12-07T22:50:29;5.90;99.90
18932;DHT22;9598;50.954;3.112;2022-12-07T22:55:31;5.80;99.90
18932;DHT22;9598;50.954;3.112;2022-12-07T23:00:35;5.80;99.90
18932;DHT22;9598;50.954;3.112;2022-12-07T23:05:40;5.80;99.90
18932;DHT22;9598;50.954;3.112;2022-12-07T23:10:44;5.80;99.90
18932;DHT22;9598;50.954;3.112;2022-12-07T23:15:48;5.70;99.90
18932;DHT22;9598;50.954;3.112;2022-12-07T23:20:50;5.70;99.90
18932;DHT22;9598;50.954;3.112;2022-12-07T23:25:52;5.70;99.90
18932;DHT22;9598;50.954;3.112;2022-12-07T23:31:01;5.70;99.90
18932;DHT22;9598;50.954;3.112;2022-12-07T23:36:08;5.70;99.90
18932;DHT22;9598;50.954;3.112;2022-12-07T23:41:12;5.70;99.90
18932;DHT22;9598;50.954;3.112;2022-12-07T23:46:17;5.60;99.90
18932;DHT22;9598;50.954;3.112;2022-12-07T23:51:20;5.60;99.90
18932;DHT22;9598;50.954;3.112;2022-12-07T23:56:24;5.70;99.90
